Terminal Aerodrome Forecast
Issued by NWS

Home | Current Version | Previous Version | Text Only | Print | Product List | Glossary On
Versions: 1 2 3 4 5 6 7 8 9 10 11 12 13
428
FTUS45 KTFX 182320
TAFHVR
TAF
KHVR 182320Z 1900/1924 22013KT P6SM SCT140 BKN200 WS020/24040KT=

USA.gov is the U.S. government's official web portal to all federal, state and local government web resources and services.